Flight Track Log - Related Links

Times and Time Zones

All times are in EDT time to prevent confusion due to time zone crossing. See the N807SM flight status page for this flight to view local times or setup timezone preferences in your user account.

Time Position Orientation Groundspeed Altitude Reporting Facility
EDT Latitude Longitude Course Direction KTS MPH feet Rate Location/Type
Fri 01:22:44 PM 45.2694 -122.7392 152° Southeast 164 189 1,300  Level Seattle Center
Fri 01:23:12 PM 45.2636 -122.7239 118° Southeast 180 207 1,700 1,281 Climbing Seattle Center
Fri 01:24:13 PM 45.2239 -122.6753 139° Southeast 191 220 3,200 1,672 Climbing Seattle Center
Fri 01:25:14 PM 45.1658 -122.6628 171° South 201 231 5,100 1,820 Climbing Seattle Center
Fri 01:26:15 PM 45.1158 -122.6817 195° South 191 220 6,900 1,869 Climbing Seattle Center
Fri 01:27:00 PM 44.7878 -122.3710 145° Southeast  Level FlightAware
Fri 01:27:16 PM 45.0744 -122.6525 154° Southeast 175 201 8,900  Level Seattle Center
Fri 01:28:00 PM 44.7237 -122.3136 152° Southeast  Level FlightAware
Fri 01:28:17 PM 45.0356 -122.6192 149° Southeast 166 191 10,800  Level Seattle Center
Fri 01:29:17 PM 44.9950 -122.5825 147° Southeast 169 194 12,500 1,686 Climbing Seattle Center
Fri 01:30:18 PM 44.9536 -122.5472 149° Southeast 172 198 14,200 1,623 Climbing Seattle Center
Fri 01:31:19 PM 44.9106 -122.5106 149° Southeast 178 205 15,800 1,574 Climbing Seattle Center
Fri 01:32:20 PM 44.8606 -122.4669 148° Southeast 186 214 17,400 1,328 Climbing Seattle Center
Fri 01:33:21 PM 44.8147 -122.4267 148° Southeast 192 221 18,500 1,180 Climbing Seattle Center
Fri 01:34:22 PM 44.7681 -122.3869 149° Southeast 194 223 19,800 1,180 Climbing Seattle Center
Fri 01:35:23 PM 44.7214 -122.3456 148° Southeast 196 226 20,900 1,131 Climbing Seattle Center
Fri 01:36:24 PM 44.6722 -122.3028 148° Southeast 202 232 22,100 1,091 Climbing Seattle Center
Fri 01:37:24 PM 44.6242 -122.2614 148° Southeast 203 234 23,100 992 Climbing Seattle Center
Fri 01:38:25 PM 44.5742 -122.2203 150° Southeast 206 237 24,100 885 Climbing Seattle Center
Fri 01:39:26 PM 44.5250 -122.1775 148° Southeast 207 238 24,900 787 Climbing Seattle Center
Fri 01:40:27 PM 44.4725 -122.1325 149° Southeast 215 247 25,700 836 Climbing Seattle Center
Fri 01:41:28 PM 44.4203 -122.0881 149° Southeast 219 252 26,600 836 Climbing Seattle Center
Fri 01:42:29 PM 44.3672 -122.0431 149° Southeast 222 255 27,400 689 Climbing Seattle Center
Fri 01:43:30 PM 44.3153 -121.9986 149° Southeast 220 253 28,000 590 Climbing Seattle Center
Fri 01:44:31 PM 44.2603 -121.9528 149° Southeast 227 261 28,600 590 Climbing Seattle Center
Fri 01:45:32 PM 44.2044 -121.9053 149° Southeast 234 269 29,200 545 Climbing Seattle Center
Fri 01:46:32 PM 44.1469 -121.8586 150° Southeast 234 269 29,700 545 Climbing Seattle Center
Fri 01:47:33 PM 44.0889 -121.8103 149° Southeast 239 275 30,300 492 Climbing Seattle Center
Fri 01:48:34 PM 44.0306 -121.7597 148° Southeast 245 282 30,700 344 Climbing Seattle Center
Fri 01:49:35 PM 43.9714 -121.7108 149° Southeast 247 284 31,000 148 Climbing Seattle Center
Fri 01:50:36 PM 43.9092 -121.6586 149° Southeast 256 295 31,000  Level Seattle Center
Fri 01:51:37 PM 43.8286 -121.5911 149° Southeast 274 315 31,000  Level Seattle Center
Fri 01:52:38 PM 43.7708 -121.5444 150° Southeast 286 329 31,000  Level Seattle Center
Fri 01:53:39 PM 43.6864 -121.4758 150° Southeast 292 336 31,000 49 Level Seattle Center
Fri 01:54:40 PM 43.6175 -121.4178 149° Southeast 291 335 31,100 344 Climbing Seattle Center
Fri 01:55:41 PM 43.5517 -121.3611 148° Southeast 285 328 31,700 492 Climbing Seattle Center
Fri 01:56:42 PM 43.4864 -121.3050 148° Southeast 279 321 32,100 344 Climbing Seattle Center
Fri 01:57:43 PM 43.4247 -121.2547 149° Southeast 268 308 32,400 246 Climbing Seattle Center
Fri 01:58:44 PM 43.3639 -121.2058 150° Southeast 258 297 32,600 242 Climbing Seattle Center
Fri 01:59:47 PM 43.3033 -121.1575 150° Southeast 253 291 32,900 194 Climbing Seattle Center
Fri 02:00:48 PM 43.2417 -121.1097 151° Southeast 253 291 33,000 49 Climbing Seattle Center
Fri 02:01:49 PM 43.1789 -121.0600 150° Southeast 257 296 33,000  Level Seattle Center
Fri 02:02:50 PM 43.1178 -120.9967 143° Southeast 270 311 33,000  Level Seattle Center
Fri 02:04:35 PM 43.0122 -120.8764 140° Southeast 278 320 33,000  Level Oakland Center
Fri 02:04:52 PM 42.9969 -120.8597 141° Southeast 284 327 33,000  Level Seattle Center
Fri 02:05:53 PM 42.9372 -120.7894 139° Southeast 283 326 33,000  Level Seattle Center
Fri 02:06:54 PM 42.8658 -120.7061 139° Southeast 281 323 33,000  Level Seattle Center
Fri 02:07:55 PM 42.8044 -120.6367 140° Southeast 285 328 33,000  Level Seattle Center
Fri 02:08:56 PM 42.7433 -120.5664 140° Southeast 287 330 33,000  Level Seattle Center
Fri 02:09:57 PM 42.6819 -120.4967 140° Southeast 288 331 33,000  Level Seattle Center
Fri 02:10:58 PM 42.6175 -120.4333 144° Southeast 292 336 33,000  Level Seattle Center
Fri 02:11:59 PM 42.5428 -120.4033 164° South 282 325 33,000  Level Seattle Center
Fri 02:13:00 PM 42.4664 -120.3708 163° South 285 328 33,000  Level Seattle Center
Fri 02:14:01 PM 42.3922 -120.3386 162° South 281 323 33,000  Level Seattle Center
Fri 02:15:02 PM 42.3181 -120.3081 163° South 279 321 33,000  Level Seattle Center
Fri 02:16:03 PM 42.2447 -120.2761 162° South 277 319 33,000  Level Seattle Center
Fri 02:17:04 PM 42.1692 -120.2453 163° South 282 325 33,000  Level Seattle Center
Fri 02:18:06 PM 42.0958 -120.2139 162° South 277 319 33,000  Level Seattle Center
Fri 02:19:07 PM 42.0217 -120.1828 163° South 279 321 33,000  Level Seattle Center
Fri 02:20:08 PM 41.9494 -120.1531 163° South 274 315 33,000  Level Seattle Center
Fri 02:21:09 PM 41.8719 -120.1300 168° South 281 323 33,000  Level Seattle Center
Fri 02:22:10 PM 41.7844 -120.0992 165° South 275 316 33,000  Level Seattle Center
Fri 02:23:11 PM 41.7114 -120.0736 165° South 271 312 33,000  Level Seattle Center
Fri 02:24:12 PM 41.6339 -120.0500 167° South 279 321 33,000  Level Seattle Center
Fri 02:25:05 PM 41.5739 -120.0294 166° South 276 318 33,000  Level Oakland Center
Fri 02:26:07 PM 41.4992 -120.0050 166° South 276 318 33,000  Level Oakland Center
Fri 02:27:15 PM 41.4114 -119.9742 165° South 276 318 33,000  Level Seattle Center
Fri 02:28:10 PM 41.3514 -119.9550 167° South 274 315 33,000  Level Oakland Center
Fri 02:29:18 PM 41.2614 -119.9242 166° South 279 321 33,000  Level Seattle Center
Fri 02:30:19 PM 41.1861 -119.9006 167° South 278 320 33,000  Level Seattle Center
Fri 02:31:20 PM 41.1111 -119.8756 166° South 278 320 33,000  Level Seattle Center
Fri 02:32:21 PM 41.0350 -119.8528 167° South 279 321 33,000  Level Seattle Center
Fri 02:33:22 PM 40.9606 -119.8272 165° South 277 319 33,000  Level Seattle Center
Fri 02:34:24 PM 40.8692 -119.7983 167° South 280 322 33,000  Level Seattle Center
Fri 02:35:25 PM 40.7925 -119.7736 166° South 282 325 33,000  Level Seattle Center
Fri 02:36:26 PM 40.7156 -119.7497 167° South 284 327 33,000  Level Seattle Center
Fri 02:37:24 PM 40.6564 -119.7289 165° South 281 323 33,000  Level Oakland Center
Fri 02:38:25 PM 40.5647 -119.7000 167° South 282 325 33,000  Level Oakland Center
Fri 02:39:27 PM 40.4881 -119.6756 166° South 283 326 33,000  Level Oakland Center
Fri 02:40:28 PM 40.4106 -119.6508 166° South 285 328 33,000  Level Oakland Center
Fri 02:41:30 PM 40.3331 -119.6256 166° South 287 330 33,000  Level Oakland Center
Fri 02:42:32 PM 40.2556 -119.6028 167° South 286 329 33,000  Level Oakland Center
Fri 02:43:33 PM 40.1781 -119.5769 166° South 287 330 33,000  Level Oakland Center
Fri 02:44:35 PM 40.0858 -119.5469 166° South 285 328 33,000  Level Oakland Center
Fri 02:45:36 PM 40.0083 -119.5236 167° South 286 329 33,000  Level Oakland Center
Fri 02:46:38 PM 39.9308 -119.4983 166° South 287 330 33,000  Level Oakland Center
Fri 02:47:40 PM 39.8536 -119.4742 166° South 286 329 33,000  Level Oakland Center
Fri 02:48:41 PM 39.7750 -119.4506 167° South 290 334 33,000  Level Oakland Center
Fri 02:49:43 PM 39.6981 -119.4253 166° South 286 329 33,000  Level Oakland Center
Fri 02:50:44 PM 39.6194 -119.4008 167° South 291 335 33,000  Level Oakland Center
Fri 02:51:46 PM 39.5425 -119.3767 166° South 287 330 33,000  Level Oakland Center
Fri 02:52:48 PM 39.4492 -119.3481 167° South 288 331 33,000  Level Oakland Center
Fri 02:53:49 PM 39.3708 -119.3233 166° South 289 333 33,000  Level Oakland Center
Fri 02:54:51 PM 39.2928 -119.2994 167° South 290 334 33,000  Level Oakland Center
Fri 02:55:52 PM 39.2175 -119.2633 160° South 291 335 33,000  Level Oakland Center
Fri 02:56:54 PM 39.1592 -119.1989 139° Southeast 279 321 33,000  Level Oakland Center
Fri 02:57:56 PM 39.0986 -119.1339 140° Southeast 283 326 33,000  Level Oakland Center
Fri 02:58:57 PM 39.0250 -119.0542 140° Southeast 288 331 33,000  Level Oakland Center
Fri 02:59:59 PM 38.9639 -118.9875 140° Southeast 289 333 33,000  Level Oakland Center
Fri 03:01:00 PM 38.9014 -118.9217 141° Southeast 291 335 33,000  Level Oakland Center
Fri 03:02:02 PM 38.8406 -118.8550 140° Southeast 290 334 33,000  Level Oakland Center
Fri 03:03:03 PM 38.7786 -118.7889 140° Southeast 291 335 33,000  Level Oakland Center
Fri 03:04:05 PM 38.7164 -118.7233 141° Southeast 291 335 33,000  Level Oakland Center
Fri 03:05:06 PM 38.6567 -118.6592 140° Southeast 284 327 33,000  Level Oakland Center
Fri 03:06:08 PM 38.5828 -118.5808 140° Southeast 287 330 33,000  Level Oakland Center
Fri 03:07:09 PM 38.5211 -118.5144 140° Southeast 289 333 33,000  Level Oakland Center
Fri 03:08:11 PM 38.4594 -118.4503 141° Southeast 287 330 33,000  Level Oakland Center
Fri 03:09:12 PM 38.3964 -118.3850 141° Southeast 291 335 33,000  Level Oakland Center
Fri 03:10:14 PM 38.3347 -118.3197 140° Southeast 289 333 33,000  Level Oakland Center
Fri 03:11:15 PM 38.2739 -118.2536 140° Southeast 288 331 33,000  Level Oakland Center
Fri 03:12:17 PM 38.2114 -118.1886 141° Southeast 289 333 33,000  Level Oakland Center
Fri 03:13:18 PM 38.1486 -118.1233 141° Southeast 290 334 33,000  Level Oakland Center
Fri 03:14:20 PM 38.0772 -118.0489 141° Southeast 288 331 33,000  Level Oakland Center
Fri 03:15:21 PM 38.0147 -117.9847 141° Southeast 288 331 33,000  Level Oakland Center
Fri 03:16:23 PM 37.9531 -117.9192 140° Southeast 291 335 33,000  Level Oakland Center
Fri 03:17:24 PM 37.8906 -117.8553 141° Southeast 291 335 33,000  Level Oakland Center
Fri 03:18:26 PM 37.8272 -117.7892 140° Southeast 296 341 33,000  Level Oakland Center
Fri 03:19:28 PM 37.7633 -117.7250 142° Southeast 294 338 33,000  Level Oakland Center
Fri 03:20:29 PM 37.6894 -117.6472 140° Southeast 290 334 33,000  Level Oakland Center
Fri 03:21:31 PM 37.6272 -117.5839 141° Southeast 288 331 33,000  Level Oakland Center
Fri 03:22:32 PM 37.5664 -117.5200 140° Southeast 287 330 33,000  Level Oakland Center
Fri 03:23:34 PM 37.5031 -117.4567 142° Southeast 290 334 33,000  Level Oakland Center
Fri 03:24:35 PM 37.4392 -117.3917 141° Southeast 294 338 33,000  Level Oakland Center
Fri 03:25:37 PM 37.3758 -117.3286 142° Southeast 291 335 33,000  Level Oakland Center
Fri 03:26:39 PM 37.3125 -117.2647 141° Southeast 292 336 33,000  Level Oakland Center
Fri 03:27:40 PM 37.2369 -117.1869 141° Southeast 293 337 33,000  Level Oakland Center
Fri 03:28:42 PM 37.1739 -117.1236 141° Southeast 292 336 33,000  Level Oakland Center
Fri 03:28:58 PM 37.1625 -117.1094 135° Southeast 292 336 33,000  Level Los Center
Fri 03:29:43 PM 37.1103 -117.0608 143° Southeast 292 336 33,000  Level Oakland Center
Fri 03:30:45 PM 37.0483 -116.9961 140° Southeast 290 334 33,000  Level Oakland Center
Fri 03:31:47 PM 36.9858 -116.9339 141° Southeast 287 330 33,000  Level Oakland Center
Fri 03:32:48 PM 36.9231 -116.8708 141° Southeast 288 331 33,000  Level Oakland Center
Fri 03:33:07 PM 36.8981 -116.8439 139° Southeast 289 333 33,000  Level Los Center
Fri 03:34:09 PM 36.8350 -116.7803 141° Southeast 291 335 33,000  Level Los Center
Fri 03:35:11 PM 36.7681 -116.7228 145° Southeast 291 335 33,000  Level Los Center
Fri 03:36:13 PM 36.6933 -116.6794 155° Southeast 294 338 33,000  Level Los Center
Fri 03:37:15 PM 36.6214 -116.6314 152° Southeast 294 338 33,000  Level Los Center
Fri 03:38:18 PM 36.5331 -116.5744 153° Southeast 296 341 33,000  Level Los Center
Fri 03:39:20 PM 36.4594 -116.5267 152° Southeast 299 344 33,000  Level Los Center
Fri 03:40:34 PM 36.3850 -116.4800 153° Southeast 299 344 33,000  Level Los Center
Fri 03:41:36 PM 36.2978 -116.4231 152° Southeast 297 342 33,000  Level Los Center
Fri 03:42:38 PM 36.2236 -116.3764 153° Southeast 297 342 33,000  Level Los Center
Fri 03:43:53 PM 36.1500 -116.3286 152° Southeast 298 343 33,000  Level Los Center
Fri 03:45:08 PM 36.0325 -116.2547 153° Southeast 297 342 33,000  Level Los Center
Fri 03:46:10 PM 35.9583 -116.2081 153° Southeast 298 343 33,000  Level Los Center
Fri 03:47:12 PM 35.8839 -116.1600 152° Southeast 300 345 33,000  Level Los Center
Fri 03:48:14 PM 35.8086 -116.1131 153° Southeast 302 348 33,000  Level Los Center
Fri 03:49:28 PM 35.7194 -116.0567 153° Southeast 301 346 33,000  Level Los Center
Fri 03:50:30 PM 35.6619 -116.0200 153° Southeast 297 342 33,000  Level Los Center
Fri 03:51:33 PM 35.5603 -115.9572 153° Southeast 292 336 33,000  Level Los Center
Fri 03:52:35 PM 35.4875 -115.9103 152° Southeast 294 338 33,000  Level Los Center
Fri 03:53:37 PM 35.4136 -115.8656 154° Southeast 295 339 33,000  Level Los Center
Fri 03:54:39 PM 35.3397 -115.8194 153° Southeast 297 342 33,000  Level Los Center
Fri 03:55:41 PM 35.2678 -115.7775 155° Southeast 291 335 33,000  Level Los Center
Fri 03:56:43 PM 35.1842 -115.7694 175° South 302 348 33,000  Level Los Center
Fri 03:57:45 PM 35.0856 -115.7589 175° South 296 341 33,000  Level Los Center
Fri 03:58:48 PM 35.0033 -115.7492 174° South 296 341 33,000  Level Los Center
Fri 03:59:50 PM 34.9222 -115.7408 175° South 294 338 33,000  Level Los Center
Fri 04:00:52 PM 34.8417 -115.7311 174° South 291 335 33,000  Level Los Center
Fri 04:01:54 PM 34.7611 -115.7214 174° South 291 335 33,000  Level Los Center
Fri 04:02:56 PM 34.6786 -115.7128 175° South 296 341 33,000  Level Los Center
Fri 04:03:58 PM 34.5781 -115.6992 174° South 299 344 33,000  Level Los Center
Fri 04:05:00 PM 34.4989 -115.6794 168° South 297 342 33,000  Level Los Center
Fri 04:06:02 PM 34.4192 -115.6611 169° South 294 338 33,000  Level Los Center
Fri 04:07:05 PM 34.3394 -115.6408 168° South 289 333 33,000  Level Los Center
Fri 04:08:07 PM 34.2603 -115.6219 169° South 289 333 33,000  Level Los Center
Fri 04:09:09 PM 34.1811 -115.6036 169° South 290 334 33,000  Level Los Center
Fri 04:10:11 PM 34.0858 -115.5803 169° South 289 333 33,000  Level Los Center
Fri 04:11:13 PM 34.0053 -115.5611 169° South 292 336 33,000  Level Los Center
Fri 04:12:15 PM 33.9239 -115.5417 169° South 296 341 33,000  Level Los Center
Fri 04:13:17 PM 33.8433 -115.5217 168° South 298 343 33,000  Level Los Center
Fri 04:14:19 PM 33.7794 -115.5067 169° South 294 338 33,000  Level Los Center
Fri 04:15:21 PM 33.6847 -115.4839 169° South 290 334 33,000  Level Los Center
Fri 04:16:24 PM 33.5894 -115.4606 168° South 291 335 33,000  Level Los Center
Fri 04:17:26 PM 33.5106 -115.4436 170° South 289 333 33,000  Level Los Center
Fri 04:18:28 PM 33.4303 -115.4250 169° South 292 336 33,000  Level Los Center
Fri 04:19:30 PM 33.3517 -115.4053 168° South 288 331 33,000  Level Los Center
Fri 04:20:32 PM 33.2728 -115.3869 169° South 289 333 33,000  Level Los Center
Fri 04:21:34 PM 33.1914 -115.3681 169° South 294 338 33,000  Level Los Center
Fri 04:22:36 PM 33.0964 -115.3458 169° South 289 333 33,000  Level Los Center
Fri 04:23:38 PM 33.0169 -115.3272 169° South 289 333 33,000  Level Los Center
Fri 04:24:41 PM 32.9361 -115.3081 169° South 294 338 33,000  Level Los Center
Fri 04:25:43 PM 32.8564 -115.2897 169° South 292 336 33,000  Level Los Center
Fri 04:26:45 PM 32.7753 -115.2703 169° South 295 339 33,000  Level Los Center
Fri 04:27:47 PM 32.6944 -115.2531 170° South 295 339 33,000  Level Los Center
Fri 04:28:49 PM 32.6022 -115.2197 163° South 295 339 33,000  Level Los Center
Fri 04:30:00 PM 32.5223 -115.1705 153° Southeast  Level FlightAware
Fri 04:37:00 PM 32.0494 -114.8815 153° Southeast  Level FlightAware
Fri 04:38:00 PM 31.9818 -114.8404 153° Southeast  Level FlightAware
Fri 04:39:00 PM 31.9141 -114.7994 153° Southeast  Level FlightAware
Fri 04:40:00 PM 31.8465 -114.7585 153° Southeast  Level FlightAware
Fri 04:41:00 PM 31.7788 -114.7176 153° Southeast  Level FlightAware
Fri 04:42:00 PM 31.7112 -114.6768 153° Southeast  Level FlightAware
Fri 04:43:00 PM 31.6437 -114.6354 152° Southeast  Level FlightAware
Fri 04:44:00 PM 31.5769 -114.5928 152° Southeast  Level FlightAware
Fri 04:45:00 PM 31.5100 -114.5503 152° Southeast  Level FlightAware
Fri 04:46:00 PM 31.4419 -114.5107 155° Southeast  Level FlightAware
Fri 04:47:00 PM 31.3729 -114.4731 155° Southeast  Level FlightAware
Fri 04:48:00 PM 31.3040 -114.4355 155° Southeast  Level FlightAware
Fri 04:49:00 PM 31.2361 -114.3955 153° Southeast  Level FlightAware
Fri 04:50:00 PM 31.1682 -114.3554 153° Southeast  Level FlightAware
Fri 04:51:00 PM 31.1003 -114.3153 153° Southeast  Level FlightAware
Fri 04:52:00 PM 31.0324 -114.2753 153° Southeast  Level FlightAware
Fri 04:53:00 PM 30.9645 -114.2354 153° Southeast  Level FlightAware
Fri 04:54:00 PM 30.8966 -114.1955 153° Southeast  Level FlightAware
Fri 04:55:00 PM 30.8286 -114.1557 153° Southeast  Level FlightAware
Fri 04:56:00 PM 30.7607 -114.1159 153° Southeast  Level FlightAware
Fri 04:57:00 PM 30.6927 -114.0762 153° Southeast  Level FlightAware
Fri 04:58:00 PM 30.6247 -114.0366 153° Southeast  Level FlightAware
Fri 04:59:00 PM 30.5567 -113.9970 153° Southeast  Level FlightAware
Fri 05:00:00 PM 30.4886 -113.9579 154° Southeast  Level FlightAware
Fri 05:01:00 PM 30.4202 -113.9192 154° Southeast  Level FlightAware
Fri 05:02:00 PM 30.3519 -113.8805 154° Southeast  Level FlightAware
Fri 05:03:00 PM 30.2835 -113.8419 154° Southeast  Level FlightAware
Fri 05:04:00 PM 30.2151 -113.8034 154° Southeast  Level FlightAware
Fri 05:05:00 PM 30.1468 -113.7648 153° Southeast  Level FlightAware
Fri 05:06:00 PM 30.0789 -113.7251 153° Southeast  Level FlightAware
Fri 05:07:00 PM 30.0110 -113.6855 153° Southeast  Level FlightAware
Fri 05:08:00 PM 29.9433 -113.6457 151° Southeast  Level FlightAware
Fri 05:09:00 PM 29.8767 -113.6033 151° Southeast  Level FlightAware
Fri 05:10:00 PM 29.8101 -113.5609 151° Southeast  Level FlightAware
Fri 05:11:00 PM 29.7424 -113.5212 156° South  Level FlightAware
Fri 05:12:00 PM 29.6726 -113.4863 156° South  Level FlightAware
Fri 05:13:00 PM 29.6029 -113.4514 157° South  Level FlightAware
Fri 05:14:00 PM 29.5338 -113.4150 154° Southeast  Level FlightAware
Fri 05:15:00 PM 29.4653 -113.3770 154° Southeast  Level FlightAware
Fri 05:16:00 PM 29.3968 -113.3389 154° Southeast  Level FlightAware
Fri 05:17:00 PM 29.3284 -113.3008 154° Southeast  Level FlightAware
Fri 05:18:00 PM 29.2600 -113.2627 154° Southeast  Level FlightAware
Fri 05:19:00 PM 29.1916 -113.2247 154° Southeast  Level FlightAware
Fri 05:20:00 PM 29.1232 -113.1867 154° Southeast  Level FlightAware
Fri 05:21:00 PM 29.0547 -113.1487 154° Southeast  Level FlightAware
Fri 05:22:00 PM 28.9863 -113.1108 154° Southeast  Level FlightAware
Fri 05:23:00 PM 28.9179 -113.0728 154° Southeast  Level FlightAware
Fri 05:24:00 PM 28.8495 -113.0348 154° Southeast  Level FlightAware
Fri 05:25:00 PM 28.7811 -112.9968 154° Southeast  Level FlightAware
Fri 05:26:00 PM 28.7127 -112.9588 154° Southeast  Level FlightAware
Fri 05:27:00 PM 28.6443 -112.9209 154° Southeast  Level FlightAware
Fri 05:28:00 PM 28.5760 -112.8829 154° Southeast  Level FlightAware
Fri 05:29:00 PM 28.5077 -112.8449 154° Southeast  Level FlightAware
Fri 05:30:00 PM 28.4393 -112.8069 154° Southeast  Level FlightAware
Fri 05:31:00 PM 28.3710 -112.7690 154° Southeast  Level FlightAware
Fri 05:32:00 PM 28.3027 -112.7309 154° Southeast  Level FlightAware
Fri 05:33:00 PM 28.2344 -112.6928 154° Southeast  Level FlightAware
Fri 05:34:00 PM 28.1662 -112.6548 154° Southeast  Level FlightAware
Fri 05:35:00 PM 28.0979 -112.6168 154° Southeast  Level FlightAware
Fri 05:36:00 PM 28.0296 -112.5789 154° Southeast  Level FlightAware
Fri 05:37:00 PM 27.9613 -112.5410 154° Southeast  Level FlightAware
Fri 05:38:00 PM 27.8930 -112.5032 154° Southeast  Level FlightAware
Fri 05:39:00 PM 27.8247 -112.4654 154° Southeast  Level FlightAware
Fri 05:40:00 PM 27.7563 -112.4278 155° Southeast  Level FlightAware
Fri 05:41:00 PM 27.6874 -112.3913 155° Southeast  Level FlightAware
Fri 05:42:00 PM 27.6186 -112.3548 155° Southeast  Level FlightAware
Fri 05:43:00 PM 27.5497 -112.3184 155° Southeast  Level FlightAware
Fri 05:44:00 PM 27.4809 -112.2820 155° Southeast  Level FlightAware
Fri 05:45:00 PM 27.4120 -112.2457 155° Southeast  Level FlightAware
Fri 05:46:00 PM 27.3431 -112.2094 155° Southeast  Level FlightAware
Fri 05:47:00 PM 27.2742 -112.1731 155° Southeast  Level FlightAware
Fri 05:48:00 PM 27.2053 -112.1369 155° Southeast  Level FlightAware
Fri 05:49:00 PM 27.1365 -112.1004 154° Southeast  Level FlightAware
Fri 05:50:00 PM 27.0679 -112.0636 154° Southeast  Level FlightAware
Fri 05:51:00 PM 26.9993 -112.0267 154° Southeast  Level FlightAware
Fri 05:52:00 PM 26.9307 -111.9900 154° Southeast  Level FlightAware
Fri 05:53:00 PM 26.8620 -111.9532 154° Southeast  Level FlightAware
Fri 05:54:00 PM 26.7934 -111.9165 154° Southeast  Level FlightAware
Fri 05:55:00 PM 26.7248 -111.8799 155° Southeast  Level FlightAware
Fri 05:56:00 PM 26.6561 -111.8433 155° Southeast  Level FlightAware
Fri 05:57:00 PM 26.5874 -111.8067 155° Southeast  Level FlightAware
Fri 05:58:00 PM 26.5187 -111.7702 155° Southeast  Level FlightAware
Fri 05:59:00 PM 26.4501 -111.7337 155° Southeast  Level FlightAware
Fri 06:00:00 PM 26.3814 -111.6973 155° Southeast  Level FlightAware
Fri 06:01:00 PM 26.3127 -111.6609 155° Southeast  Level FlightAware
Fri 06:02:00 PM 26.2439 -111.6246 155° Southeast  Level FlightAware
Fri 06:03:00 PM 26.1752 -111.5883 155° Southeast  Level FlightAware
Fri 06:04:00 PM 26.1065 -111.5520 155° Southeast  Level FlightAware
Fri 06:05:00 PM 26.0377 -111.5158 155° Southeast  Level FlightAware
Fri 06:06:00 PM 25.9690 -111.4796 155° Southeast  Level FlightAware
Fri 06:07:00 PM 25.9002 -111.4435 155° Southeast  Level FlightAware
Fri 06:08:00 PM 25.8314 -111.4074 155° Southeast  Level FlightAware
Fri 06:09:00 PM 25.7627 -111.3714 155° Southeast  Level FlightAware
Fri 06:10:00 PM 25.6939 -111.3354 155° Southeast  Level FlightAware
Fri 06:11:00 PM 25.6251 -111.2994 155° Southeast  Level FlightAware
Fri 06:12:00 PM 25.5563 -111.2635 155° Southeast  Level FlightAware
Fri 06:13:00 PM 25.4874 -111.2276 155° Southeast  Level FlightAware
Fri 06:14:00 PM 25.4186 -111.1917 155° Southeast  Level FlightAware
Fri 06:15:00 PM 25.3498 -111.1560 155° Southeast  Level FlightAware
Fri 06:16:00 PM 25.2810 -111.1202 155° Southeast  Level FlightAware
Fri 06:17:00 PM 25.2121 -111.0845 155° Southeast  Level FlightAware
Fri 06:18:00 PM 25.1432 -111.0488 155° Southeast  Level FlightAware
Fri 06:19:00 PM 25.0744 -111.0132 155° Southeast  Level FlightAware
Fri 06:20:00 PM 25.0054 -110.9777 156° South  Level FlightAware
Fri 06:21:00 PM 24.9362 -110.9430 156° South  Level FlightAware
Fri 06:22:00 PM 24.8669 -110.9084 156° South  Level FlightAware
Fri 06:23:00 PM 24.7976 -110.8738 156° South  Level FlightAware
Fri 06:24:00 PM 24.7284 -110.8392 156° South  Level FlightAware
Fri 06:25:00 PM 24.6597 -110.8032 153° Southeast  Level FlightAware
Fri 06:26:00 PM 24.5923 -110.7646 153° Southeast  Level FlightAware
Fri 06:27:00 PM 24.5248 -110.7260 153° Southeast  Level FlightAware
Fri 06:28:00 PM 24.4573 -110.6875 153° Southeast  Level FlightAware
Fri 06:29:00 PM 24.3877 -110.6538 157° South  Level FlightAware
Fri 06:30:00 PM 24.3179 -110.6207 157° South  Level FlightAware
Fri 06:31:00 PM 24.2481 -110.5876 157° South  Level FlightAware
Fri 06:32:00 PM 24.1783 -110.5546 157° South  Level FlightAware
Fri 06:33:00 PM 24.1087 -110.5210 155° Southeast  Level FlightAware
Fri 06:34:00 PM 24.0395 -110.4863 155° Southeast  Level FlightAware
Fri 06:35:00 PM 23.9704 -110.4516 155° Southeast  Level FlightAware
Fri 06:36:00 PM 23.9012 -110.4170 155° Southeast  Level FlightAware
Fri 06:37:00 PM 23.8320 -110.3825 155° Southeast  Level FlightAware
Fri 06:38:00 PM 23.7628 -110.3479 155° Southeast  Level FlightAware
Fri 06:39:00 PM 23.6936 -110.3134 155° Southeast  Level FlightAware
Fri 06:40:00 PM 23.6253 -110.2770 153° Southeast  Level FlightAware
Fri 06:41:00 PM 23.5576 -110.2394 153° Southeast  Level FlightAware
Fri 06:42:00 PM 23.4893 -110.2029 155° Southeast  Level FlightAware
Fri 06:43:00 PM 23.4201 -110.1684 155° Southeast  Level FlightAware
Fri 06:44:00 PM 23.3510 -110.1338 155° Southeast  Level FlightAware
Fri 06:45:00 PM 23.2812 -110.1009 158° South  Level FlightAware
Fri 06:46:00 PM 23.2108 -110.0696 158° South  Level FlightAware
Fri 06:47:00 PM 23.1448 -110.0307 155° Southeast  Level FlightAware
Fri 06:48:00 PM 23.0757 -109.9962 155° Southeast  Level FlightAware
Fri 06:49:00 PM 23.0063 -109.9625 160° South  Level FlightAware
Fri 06:50:00 PM 22.9485 -109.9387 160° South  Level Estimated
Fri 06:51:00 PM 22.9485 -109.9387 160° South  Level Estimated
Fri 06:52:00 PM 22.9485 -109.9387 160° South  Level Estimated
Fri 06:53:00 PM 22.9485 -109.9387 160° South  Level Estimated
Fri 06:54:00 PM 22.9485 -109.9387 160° South  Level Estimated
Fri 06:55:00 PM 22.9485 -109.9387 160° South  Level Estimated
Fri 06:56:00 PM 22.9485 -109.9387 160° South  Level Estimated
Fri 06:57:00 PM 22.9485 -109.9387 160° South  Level Estimated
Fri 06:58:00 PM 22.9485 -109.9387 160° South  Level Estimated
Fri 06:59:00 PM 22.9485 -109.9387 160° South  Level Estimated
Fri 07:00:00 PM 22.9485 -109.9387 160° South  Level Estimated
Fri 07:01:00 PM 22.9485 -109.9387 160° South  Level Estimated
Fri 07:02:00 PM 22.9485 -109.9387 160° South  Level Estimated
Fri 07:03:00 PM 22.9485 -109.9387 160° South  Level Estimated

Login

Don't have an account? Register now (free) for customized features, flight alerts, and more!